Redwood National Park, CA

8:27 AM PST op 20 december 2014 (GMT -0800)
Walker Point | Change Station
CLOSE
Current Station
Persoonlijk weerstation
Location: Bayside, CA
Geometrische hoogte: 72 ft
Nabije weerstations

Hoogte 72 ft 40.81 °N, 124.09 °W | Updated 2 minutes ago

Regen
Regen
52.5 °F
Voelt als 52.5 °F
N
2.2
Wind Variabel Wind van oost
Gusts 4.5 mijl/u

Vandaag
Hoog -- | Laag -- °F
--% Kans op neerslag
Gisteren
Hoog -- | Laag -- °F
Precip. -- inches
7:36 AM 4:51 PM
Afnemende halvemaan, 2% visible
Druk 30.04 inches
Zicht 10.0 mijlen
Wolken Licht bewolkt 3800 ft
Merendeels bewolkt 4900 ft
Geheel bewolkt 7000 ft
Dauwpunt 46 °F
Vochtigheid 78%
Neerslag 0.43 inches
Dikte sneeuw Niet beschikbaar.
UV 0 van de 12
Pollen .70 van de 12
Luchtkwaliteit Niet beschikbaar.
Flu Activity Niet beschikbaar.
METAR KACV 201553Z AUTO 13011KT 10SM -RA SCT038 BKN049 OVC070 11/09 A3002 RMK AO2 SLP171 P0006 T01110094

More Conditions Fewer Conditions

Druk 30.04 inches
Zicht 10.0 mijlen
Wolken Licht bewolkt 3800 ft
Merendeels bewolkt 4900 ft
Geheel bewolkt 7000 ft
Dauwpunt 46 °F
Vochtigheid 78%
Neerslag 0.43 inches
Dikte sneeuw Niet beschikbaar.
UV 0 van de 12
Pollen .70 van de 12
Luchtkwaliteit Niet beschikbaar.
Flu Activity Niet beschikbaar.
METAR KACV 201553Z AUTO 13011KT 10SM -RA SCT038 BKN049 OVC070 11/09 A3002 RMK AO2 SLP171 P0006 T01110094

More Conditions Fewer Conditions

10-Day Weather Forecast

Almanac

Astronomie

Dec. 20, 2014 Opkomst Ondergang
Werkelijke tijd
Burgerlijke schemering
Nautische schemering
Astronomische schemering
Maan
Golflengte van het zichtbare licht
Daglengte
Tomorrow will be .
, % of the Moon is Illuminated

Extremen vandaag

State Highs State Lows

Community

WunderPhotos

Upload Photos

1,779,214 foto’s ge-upload!

WunderBlogs® & News

Nearby

Luchtkwaliteit

  Luchtkwaliteit LK-index Verontreinigende stof
Not available.

Dikte sneeuw

Station Depth Geometrische hoogte

Aardbevingen

Stad Distance Mag. Time & Date
Minimum magnitude displayed is 2.5.

Watertemperatuur langs de kust

Plaats Temperatuur

Nabije weerstations